sensor_id;sensor_type;location;lat;lon;timestamp;pressure;altitude;pressure_sealevel;temperature;humidity
50384;BME280;36301;48.310;12.786;2024-02-26T00:00:20;94622.13;;;4.23;90.74
50384;BME280;36301;48.310;12.786;2024-02-26T00:02:49;94619.88;;;4.25;90.77
50384;BME280;36301;48.310;12.786;2024-02-26T00:05:20;94616.47;;;4.21;91.20
50384;BME280;36301;48.310;12.786;2024-02-26T00:07:51;94604.47;;;4.16;91.12
50384;BME280;36301;48.310;12.786;2024-02-26T00:10:18;94605.13;;;4.09;92.08
50384;BME280;36301;48.310;12.786;2024-02-26T00:12:45;94608.81;;;4.05;93.29
50384;BME280;36301;48.310;12.786;2024-02-26T00:15:11;94598.00;;;4.06;93.79
50384;BME280;36301;48.310;12.786;2024-02-26T00:17:38;94601.25;;;3.96;93.31
50384;BME280;36301;48.310;12.786;2024-02-26T00:20:05;94599.44;;;4.04;93.30
50384;BME280;36301;48.310;12.786;2024-02-26T00:22:35;94599.06;;;4.02;93.18
50384;BME280;36301;48.310;12.786;2024-02-26T00:25:03;94606.50;;;3.70;92.96
50384;BME280;36301;48.310;12.786;2024-02-26T00:27:30;94603.78;;;3.62;94.28
50384;BME280;36301;48.310;12.786;2024-02-26T00:33:51;94601.56;;;3.64;94.32
50384;BME280;36301;48.310;12.786;2024-02-26T00:40:36;94598.94;;;3.64;94.61
50384;BME280;36301;48.310;12.786;2024-02-26T00:43:14;94593.03;;;3.68;93.89
50384;BME280;36301;48.310;12.786;2024-02-26T00:53:48;94581.31;;;3.58;93.74
50384;BME280;36301;48.310;12.786;2024-02-26T00:56:15;94582.78;;;3.55;93.80
50384;BME280;36301;48.310;12.786;2024-02-26T00:58:43;94580.50;;;3.54;93.46
50384;BME280;36301;48.310;12.786;2024-02-26T01:01:14;94583.78;;;3.47;92.82
50384;BME280;36301;48.310;12.786;2024-02-26T01:03:44;94579.44;;;3.32;93.53
50384;BME280;36301;48.310;12.786;2024-02-26T01:06:11;94580.16;;;3.29;93.24
50384;BME280;36301;48.310;12.786;2024-02-26T01:08:38;94576.69;;;3.21;94.01
50384;BME280;36301;48.310;12.786;2024-02-26T01:11:05;94574.75;;;3.18;93.06
50384;BME280;36301;48.310;12.786;2024-02-26T01:13:32;94575.88;;;3.17;92.69
50384;BME280;36301;48.310;12.786;2024-02-26T01:15:58;94573.19;;;3.13;92.77
50384;BME280;36301;48.310;12.786;2024-02-26T01:18:26;94572.44;;;3.13;93.39
50384;BME280;36301;48.310;12.786;2024-02-26T01:20:53;94567.88;;;3.06;93.70
50384;BME280;36301;48.310;12.786;2024-02-26T01:23:21;94562.28;;;3.08;94.06
50384;BME280;36301;48.310;12.786;2024-02-26T01:25:48;94557.03;;;3.04;93.54
50384;BME280;36301;48.310;12.786;2024-02-26T01:28:15;94566.75;;;3.07;94.31
50384;BME280;36301;48.310;12.786;2024-02-26T01:30:42;94558.91;;;3.07;94.46
50384;BME280;36301;48.310;12.786;2024-02-26T01:33:09;94555.94;;;3.09;93.56
50384;BME280;36301;48.310;12.786;2024-02-26T01:35:36;94555.94;;;3.09;93.56
50384;BME280;36301;48.310;12.786;2024-02-26T01:38:02;94551.06;;;3.07;93.81
50384;BME280;36301;48.310;12.786;2024-02-26T01:40:29;94552.53;;;3.05;93.10
50384;BME280;36301;48.310;12.786;2024-02-26T01:42:56;94554.81;;;3.06;93.21
50384;BME280;36301;48.310;12.786;2024-02-26T01:45:23;94554.44;;;3.08;94.29
50384;BME280;36301;48.310;12.786;2024-02-26T01:47:54;94555.00;;;2.94;93.81
50384;BME280;36301;48.310;12.786;2024-02-26T01:50:22;94558.69;;;2.93;94.29
50384;BME280;36301;48.310;12.786;2024-02-26T01:52:50;94556.91;;;2.97;94.15
50384;BME280;36301;48.310;12.786;2024-02-26T01:55:18;94558.69;;;2.93;94.78
50384;BME280;36301;48.310;12.786;2024-02-26T01:57:49;94557.72;;;3.01;94.68
50384;BME280;36301;48.310;12.786;2024-02-26T02:00:20;94558.66;;;2.90;94.65
50384;BME280;36301;48.310;12.786;2024-02-26T02:02:49;94551.75;;;2.78;93.96
50384;BME280;36301;48.310;12.786;2024-02-26T02:05:19;94556.00;;;3.12;94.68
50384;BME280;36301;48.310;12.786;2024-02-26T02:07:46;94548.00;;;3.02;94.16
50384;BME280;36301;48.310;12.786;2024-02-26T07:28:25;94610.72;;;7.47;73.33
50384;BME280;36301;48.310;12.786;2024-02-26T07:30:52;94619.19;;;8.26;67.79
50384;BME280;36301;48.310;12.786;2024-02-26T07:33:18;94623.47;;;8.83;66.51
50384;BME280;36301;48.310;12.786;2024-02-26T07:35:45;94617.00;;;8.00;67.52
50384;BME280;36301;48.310;12.786;2024-02-26T07:38:12;94617.31;;;8.27;67.44
50384;BME280;36301;48.310;12.786;2024-02-26T07:40:57;94618.59;;;7.72;67.99
50384;BME280;36301;48.310;12.786;2024-02-26T07:43:29;94617.09;;;7.50;69.20
50384;BME280;36301;48.310;12.786;2024-02-26T07:45:55;94623.50;;;7.52;71.21
50384;BME280;36301;48.310;12.786;2024-02-26T07:48:22;94626.88;;;7.64;69.64
50384;BME280;36301;48.310;12.786;2024-02-26T07:50:49;94622.63;;;8.16;69.58
50384;BME280;36301;48.310;12.786;2024-02-26T07:53:15;94641.75;;;9.12;65.11
50384;BME280;36301;48.310;12.786;2024-02-26T07:55:42;94633.97;;;9.42;64.69
50384;BME280;36301;48.310;12.786;2024-02-26T07:58:08;94647.19;;;9.42;64.57
50384;BME280;36301;48.310;12.786;2024-02-26T08:00:36;94652.09;;;9.44;62.77
50384;BME280;36301;48.310;12.786;2024-02-26T08:03:13;94658.72;;;9.14;64.53
50384;BME280;36301;48.310;12.786;2024-02-26T08:05:51;94655.75;;;9.57;64.83
50384;BME280;36301;48.310;12.786;2024-02-26T08:08:17;94639.44;;;10.45;61.30
50384;BME280;36301;48.310;12.786;2024-02-26T08:10:44;94647.94;;;11.17;60.39
50384;BME280;36301;48.310;12.786;2024-02-26T08:13:11;94657.41;;;11.41;57.35
50384;BME280;36301;48.310;12.786;2024-02-26T08:15:38;94667.00;;;11.82;56.41
50384;BME280;36301;48.310;12.786;2024-02-26T08:18:05;94665.66;;;11.94;55.77
50384;BME280;36301;48.310;12.786;2024-02-26T08:20:32;94671.75;;;11.91;55.44
50384;BME280;36301;48.310;12.786;2024-02-26T08:22:58;94672.22;;;11.62;56.53
50384;BME280;36301;48.310;12.786;2024-02-26T08:25:25;94655.91;;;10.86;56.34
50384;BME280;36301;48.310;12.786;2024-02-26T08:27:52;94661.47;;;10.96;57.56
50384;BME280;36301;48.310;12.786;2024-02-26T08:30:18;94665.25;;;10.64;59.04
50384;BME280;36301;48.310;12.786;2024-02-26T08:32:47;94658.16;;;11.15;59.29
50384;BME280;36301;48.310;12.786;2024-02-26T08:35:18;94662.38;;;11.63;58.33
50384;BME280;36301;48.310;12.786;2024-02-26T08:37:46;94658.03;;;11.49;58.59
50384;BME280;36301;48.310;12.786;2024-02-26T08:40:13;94660.81;;;11.42;57.15
50384;BME280;36301;48.310;12.786;2024-02-26T08:42:40;94667.56;;;11.47;58.17
50384;BME280;36301;48.310;12.786;2024-02-26T08:45:07;94665.00;;;11.12;56.09
50384;BME280;36301;48.310;12.786;2024-02-26T08:47:34;94675.72;;;11.32;54.46
50384;BME280;36301;48.310;12.786;2024-02-26T08:50:01;94666.50;;;11.40;54.70
50384;BME280;36301;48.310;12.786;2024-02-26T08:52:28;94669.84;;;11.44;55.37
50384;BME280;36301;48.310;12.786;2024-02-26T08:54:55;94665.56;;;11.27;55.53
50384;BME280;36301;48.310;12.786;2024-02-26T08:57:22;94673.00;;;10.82;56.51
50384;BME280;36301;48.310;12.786;2024-02-26T08:59:48;94666.91;;;11.12;55.04
50384;BME280;36301;48.310;12.786;2024-02-26T09:02:16;94679.09;;;11.83;53.53
50384;BME280;36301;48.310;12.786;2024-02-26T09:04:43;94665.75;;;12.10;53.65
50384;BME280;36301;48.310;12.786;2024-02-26T09:07:10;94665.06;;;11.36;53.10
50384;BME280;36301;48.310;12.786;2024-02-26T09:09:36;94665.06;;;10.51;56.22
50384;BME280;36301;48.310;12.786;2024-02-26T09:12:03;94661.97;;;10.19;57.81
50384;BME280;36301;48.310;12.786;2024-02-26T09:14:30;94663.50;;;10.84;57.26
50384;BME280;36301;48.310;12.786;2024-02-26T09:16:57;94663.72;;;12.18;54.09
50384;BME280;36301;48.310;12.786;2024-02-26T09:19:25;94672.41;;;12.42;53.74
50384;BME280;36301;48.310;12.786;2024-02-26T09:21:54;94674.09;;;12.32;53.01
50384;BME280;36301;48.310;12.786;2024-02-26T09:24:24;94663.59;;;11.82;53.47
50384;BME280;36301;48.310;12.786;2024-02-26T09:26:51;94674.56;;;12.27;53.14
50384;BME280;36301;48.310;12.786;2024-02-26T09:29:18;94673.13;;;13.18;50.91
50384;BME280;36301;48.310;12.786;2024-02-26T09:31:45;94673.66;;;13.10;49.22
50384;BME280;36301;48.310;12.786;2024-02-26T09:34:14;94679.44;;;12.88;50.80
50384;BME280;36301;48.310;12.786;2024-02-26T09:36:40;94682.53;;;12.47;50.87
50384;BME280;36301;48.310;12.786;2024-02-26T09:39:07;94676.75;;;12.32;52.30
50384;BME280;36301;48.310;12.786;2024-02-26T09:41:38;94676.53;;;12.63;52.64
50384;BME280;36301;48.310;12.786;2024-02-26T09:44:05;94680.94;;;12.69;53.09
50384;BME280;36301;48.310;12.786;2024-02-26T09:46:32;94680.31;;;12.62;53.34
50384;BME280;36301;48.310;12.786;2024-02-26T09:48:59;94683.56;;;12.53;52.11
50384;BME280;36301;48.310;12.786;2024-02-26T09:51:26;94685.75;;;12.15;51.82
50384;BME280;36301;48.310;12.786;2024-02-26T09:53:54;94687.69;;;12.34;51.60
50384;BME280;36301;48.310;12.786;2024-02-26T09:56:21;94679.31;;;12.76;52.29
50384;BME280;36301;48.310;12.786;2024-02-26T09:58:48;94679.56;;;13.70;49.15
50384;BME280;36301;48.310;12.786;2024-02-26T10:01:20;94690.69;;;12.76;49.18
50384;BME280;36301;48.310;12.786;2024-02-26T10:03:55;94693.69;;;12.38;49.18
50384;BME280;36301;48.310;12.786;2024-02-26T10:06:28;94701.44;;;12.49;49.97
50384;BME280;36301;48.310;12.786;2024-02-26T10:08:58;94710.84;;;13.30;49.92
50384;BME280;36301;48.310;12.786;2024-02-26T10:11:26;94703.34;;;12.49;49.03
50384;BME280;36301;48.310;12.786;2024-02-26T10:13:53;94708.09;;;11.94;49.76
50384;BME280;36301;48.310;12.786;2024-02-26T10:16:20;94706.72;;;11.86;49.77
50384;BME280;36301;48.310;12.786;2024-02-26T10:18:49;94707.50;;;12.06;50.04
50384;BME280;36301;48.310;12.786;2024-02-26T10:21:25;94706.50;;;12.20;50.46
50384;BME280;36301;48.310;12.786;2024-02-26T10:23:52;94699.25;;;12.24;51.22
50384;BME280;36301;48.310;12.786;2024-02-26T10:26:19;94688.00;;;12.16;50.98
50384;BME280;36301;48.310;12.786;2024-02-26T10:28:46;94694.63;;;11.58;51.92
50384;BME280;36301;48.310;12.786;2024-02-26T10:31:18;94698.38;;;11.60;51.67
50384;BME280;36301;48.310;12.786;2024-02-26T10:33:45;94697.94;;;11.89;51.96
50384;BME280;36301;48.310;12.786;2024-02-26T10:36:12;94698.06;;;11.55;52.25
50384;BME280;36301;48.310;12.786;2024-02-26T10:38:39;94698.06;;;12.05;51.45
50384;BME280;36301;48.310;12.786;2024-02-26T10:41:06;94692.59;;;12.56;51.33
50384;BME280;36301;48.310;12.786;2024-02-26T10:43:33;94693.19;;;12.24;50.18
50384;BME280;36301;48.310;12.786;2024-02-26T10:45:59;94694.09;;;12.37;50.65
50384;BME280;36301;48.310;12.786;2024-02-26T10:48:26;94689.03;;;11.76;50.10
50384;BME280;36301;48.310;12.786;2024-02-26T10:50:53;94694.84;;;11.94;50.95
50384;BME280;36301;48.310;12.786;2024-02-26T10:53:22;94690.13;;;11.55;50.81
50384;BME280;36301;48.310;12.786;2024-02-26T10:55:52;94697.63;;;11.60;50.33
50384;BME280;36301;48.310;12.786;2024-02-26T10:58:21;94687.56;;;11.98;52.18
50384;BME280;36301;48.310;12.786;2024-02-26T11:00:50;94689.28;;;12.08;51.32
50384;BME280;36301;48.310;12.786;2024-02-26T11:03:18;94685.53;;;12.49;52.25
50384;BME280;36301;48.310;12.786;2024-02-26T11:05:49;94692.88;;;11.98;51.86
50384;BME280;36301;48.310;12.786;2024-02-26T11:08:21;94689.94;;;11.92;51.36
50384;BME280;36301;48.310;12.786;2024-02-26T11:10:48;94686.75;;;11.78;50.60
50384;BME280;36301;48.310;12.786;2024-02-26T11:13:18;94685.19;;;12.04;50.30
50384;BME280;36301;48.310;12.786;2024-02-26T11:15:48;94687.38;;;12.09;49.53
50384;BME280;36301;48.310;12.786;2024-02-26T11:18:18;94688.38;;;12.38;49.74
50384;BME280;36301;48.310;12.786;2024-02-26T11:20:46;94690.38;;;12.11;49.54
50384;BME280;36301;48.310;12.786;2024-02-26T11:23:14;94685.19;;;11.80;51.63
50384;BME280;36301;48.310;12.786;2024-02-26T11:25:42;94688.78;;;12.17;51.50
50384;BME280;36301;48.310;12.786;2024-02-26T11:28:11;94681.69;;;12.30;50.37
50384;BME280;36301;48.310;12.786;2024-02-26T11:30:42;94685.56;;;12.45;51.13
50384;BME280;36301;48.310;12.786;2024-02-26T11:33:10;94686.41;;;12.42;50.70
50384;BME280;36301;48.310;12.786;2024-02-26T11:35:39;94677.00;;;12.18;50.74
50384;BME280;36301;48.310;12.786;2024-02-26T11:38:05;94659.41;;;12.48;50.10
50384;BME280;36301;48.310;12.786;2024-02-26T11:40:38;94666.44;;;12.74;50.20
50384;BME280;36301;48.310;12.786;2024-02-26T11:43:08;94673.41;;;13.04;49.45
50384;BME280;36301;48.310;12.786;2024-02-26T11:48:15;94671.53;;;13.21;48.51
50384;BME280;36301;48.310;12.786;2024-02-26T11:50:51;94663.16;;;12.86;50.11
50384;BME280;36301;48.310;12.786;2024-02-26T11:53:30;94672.50;;;12.75;50.04
50384;BME280;36301;48.310;12.786;2024-02-26T11:56:20;94668.31;;;12.37;49.58
50384;BME280;36301;48.310;12.786;2024-02-26T11:58:47;94675.06;;;12.42;50.31
50384;BME280;36301;48.310;12.786;2024-02-26T12:04:05;94677.75;;;12.38;52.88
50384;BME280;36301;48.310;12.786;2024-02-26T12:07:02;94665.41;;;12.08;52.41
50384;BME280;36301;48.310;12.786;2024-02-26T12:09:38;94669.50;;;12.13;53.29
50384;BME280;36301;48.310;12.786;2024-02-26T12:12:08;94664.19;;;12.13;53.19
50384;BME280;36301;48.310;12.786;2024-02-26T12:14:53;94654.88;;;11.81;54.47
50384;BME280;36301;48.310;12.786;2024-02-26T12:17:23;94649.56;;;11.58;56.17
50384;BME280;36301;48.310;12.786;2024-02-26T12:19:51;94654.88;;;11.58;56.65
50384;BME280;36301;48.310;12.786;2024-02-26T12:22:20;94648.00;;;11.60;57.07
50384;BME280;36301;48.310;12.786;2024-02-26T12:24:47;94650.28;;;11.62;56.58
50384;BME280;36301;48.310;12.786;2024-02-26T12:27:14;94651.53;;;11.77;56.07
50384;BME280;36301;48.310;12.786;2024-02-26T12:29:41;94658.59;;;11.87;55.82
50384;BME280;36301;48.310;12.786;2024-02-26T12:32:08;94649.38;;;12.15;55.90
50384;BME280;36301;48.310;12.786;2024-02-26T12:34:35;94658.22;;;12.68;55.65
50384;BME280;36301;48.310;12.786;2024-02-26T12:37:02;94650.16;;;12.72;53.41
50384;BME280;36301;48.310;12.786;2024-02-26T12:39:29;94654.50;;;13.18;51.52
50384;BME280;36301;48.310;12.786;2024-02-26T12:41:57;94660.53;;;13.39;51.60
50384;BME280;36301;48.310;12.786;2024-02-26T12:44:26;94665.66;;;13.79;50.60
50384;BME280;36301;48.310;12.786;2024-02-26T12:47:03;94677.34;;;13.97;50.91
50384;BME280;36301;48.310;12.786;2024-02-26T12:49:30;94668.63;;;13.97;49.42
50384;BME280;36301;48.310;12.786;2024-02-26T12:51:58;94674.03;;;14.10;49.87
50384;BME280;36301;48.310;12.786;2024-02-26T12:54:29;94666.47;;;14.37;49.49
50384;BME280;36301;48.310;12.786;2024-02-26T12:56:59;94668.03;;;14.51;49.97
50384;BME280;36301;48.310;12.786;2024-02-26T12:59:27;94674.22;;;14.32;49.08
50384;BME280;36301;48.310;12.786;2024-02-26T13:01:54;94672.44;;;14.12;49.43
50384;BME280;36301;48.310;12.786;2024-02-26T13:04:21;94678.06;;;14.43;49.56
50384;BME280;36301;48.310;12.786;2024-02-26T13:06:48;94680.84;;;14.40;48.09
50384;BME280;36301;48.310;12.786;2024-02-26T13:09:14;94674.88;;;14.36;47.72
50384;BME280;36301;48.310;12.786;2024-02-26T13:11:41;94679.06;;;14.49;48.04
50384;BME280;36301;48.310;12.786;2024-02-26T13:14:19;94671.53;;;14.02;48.29
50384;BME280;36301;48.310;12.786;2024-02-26T13:16:56;94677.34;;;13.97;48.75
50384;BME280;36301;48.310;12.786;2024-02-26T13:19:23;94662.44;;;14.45;50.47
50384;BME280;36301;48.310;12.786;2024-02-26T13:21:50;94662.56;;;13.96;48.51
50384;BME280;36301;48.310;12.786;2024-02-26T13:24:17;94667.56;;;14.23;49.92
50384;BME280;36301;48.310;12.786;2024-02-26T13:26:46;94667.84;;;14.13;49.24
50384;BME280;36301;48.310;12.786;2024-02-26T13:29:19;94677.34;;;14.43;49.15
50384;BME280;36301;48.310;12.786;2024-02-26T13:31:45;94683.69;;;14.33;47.75
50384;BME280;36301;48.310;12.786;2024-02-26T13:34:26;94687.50;;;14.48;49.44
50384;BME280;36301;48.310;12.786;2024-02-26T13:36:54;94693.66;;;13.83;49.33
50384;BME280;36301;48.310;12.786;2024-02-26T13:39:22;94684.16;;;13.98;49.68
50384;BME280;36301;48.310;12.786;2024-02-26T13:41:51;94679.38;;;13.77;49.71
50384;BME280;36301;48.310;12.786;2024-02-26T13:44:18;94682.31;;;14.12;48.49
50384;BME280;36301;48.310;12.786;2024-02-26T13:46:45;94683.59;;;14.07;48.50
50384;BME280;36301;48.310;12.786;2024-02-26T13:49:12;94675.03;;;13.99;47.99
50384;BME280;36301;48.310;12.786;2024-02-26T13:51:40;94686.09;;;13.98;47.92
50384;BME280;36301;48.310;12.786;2024-02-26T13:54:07;94692.06;;;14.02;49.20
50384;BME280;36301;48.310;12.786;2024-02-26T13:56:36;94693.16;;;13.88;48.15
50384;BME280;36301;48.310;12.786;2024-02-26T13:59:05;94700.25;;;13.95;48.70
50384;BME280;36301;48.310;12.786;2024-02-26T14:01:32;94701.78;;;14.25;46.76
50384;BME280;36301;48.310;12.786;2024-02-26T14:04:00;94698.16;;;14.48;46.65
50384;BME280;36301;48.310;12.786;2024-02-26T14:06:29;94689.59;;;13.95;52.12
50384;BME280;36301;48.310;12.786;2024-02-26T14:08:58;94683.13;;;13.47;54.06
50384;BME280;36301;48.310;12.786;2024-02-26T14:11:25;94686.88;;;13.49;53.59
50384;BME280;36301;48.310;12.786;2024-02-26T14:13:52;94684.53;;;13.68;53.05
50384;BME280;36301;48.310;12.786;2024-02-26T14:16:19;94687.38;;;13.61;53.04
50384;BME280;36301;48.310;12.786;2024-02-26T14:18:46;94695.34;;;13.44;53.41
50384;BME280;36301;48.310;12.786;2024-02-26T14:21:13;94709.31;;;13.65;53.10
50384;BME280;36301;48.310;12.786;2024-02-26T14:23:40;94710.06;;;13.82;51.88
50384;BME280;36301;48.310;12.786;2024-02-26T14:26:09;94708.88;;;13.83;53.06
50384;BME280;36301;48.310;12.786;2024-02-26T14:28:35;94713.63;;;13.59;53.60
50384;BME280;36301;48.310;12.786;2024-02-26T14:31:05;94715.88;;;13.44;54.08
50384;BME280;36301;48.310;12.786;2024-02-26T14:33:37;94720.13;;;13.74;52.58
50384;BME280;36301;48.310;12.786;2024-02-26T14:36:04;94720.09;;;13.58;54.17
50384;BME280;36301;48.310;12.786;2024-02-26T14:38:32;94670.09;;;13.16;54.80
50384;BME280;36301;48.310;12.786;2024-02-26T14:40:59;94720.16;;;13.38;54.63
50384;BME280;36301;48.310;12.786;2024-02-26T14:43:25;94724.47;;;13.32;55.37
50384;BME280;36301;48.310;12.786;2024-02-26T14:45:52;94734.16;;;13.22;55.45
50384;BME280;36301;48.310;12.786;2024-02-26T14:48:18;94735.53;;;13.30;55.86
50384;BME280;36301;48.310;12.786;2024-02-26T14:50:45;94740.56;;;13.61;55.23
50384;BME280;36301;48.310;12.786;2024-02-26T14:53:12;94742.53;;;13.20;55.14
50384;BME280;36301;48.310;12.786;2024-02-26T14:55:39;94740.59;;;13.41;55.70
50384;BME280;36301;48.310;12.786;2024-02-26T14:58:11;94746.38;;;13.56;54.87
50384;BME280;36301;48.310;12.786;2024-02-26T15:00:43;94746.16;;;13.30;56.06
50384;BME280;36301;48.310;12.786;2024-02-26T15:03:09;94737.44;;;13.10;55.83
50384;BME280;36301;48.310;12.786;2024-02-26T15:05:37;94738.69;;;12.65;57.15
50384;BME280;36301;48.310;12.786;2024-02-26T15:08:03;94742.78;;;12.70;57.55
50384;BME280;36301;48.310;12.786;2024-02-26T15:10:31;94740.47;;;12.52;56.83
50384;BME280;36301;48.310;12.786;2024-02-26T15:12:57;94730.72;;;12.85;56.21
50384;BME280;36301;48.310;12.786;2024-02-26T15:15:24;94738.75;;;12.82;56.34
50384;BME280;36301;48.310;12.786;2024-02-26T15:17:51;94742.09;;;12.66;56.33
50384;BME280;36301;48.310;12.786;2024-02-26T15:20:19;94752.03;;;12.62;55.62
50384;BME280;36301;48.310;12.786;2024-02-26T15:22:46;94763.81;;;13.01;56.43
50384;BME280;36301;48.310;12.786;2024-02-26T15:25:14;94756.72;;;13.14;56.17
50384;BME280;36301;48.310;12.786;2024-02-26T15:27:41;94772.41;;;13.28;55.53
50384;BME280;36301;48.310;12.786;2024-02-26T15:30:09;94775.72;;;13.12;54.79
50384;BME280;36301;48.310;12.786;2024-02-26T15:32:36;94783.63;;;12.76;54.88
50384;BME280;36301;48.310;12.786;2024-02-26T15:35:03;94779.69;;;12.84;55.35
50384;BME280;36301;48.310;12.786;2024-02-26T15:37:29;94787.31;;;12.82;56.31
50384;BME280;36301;48.310;12.786;2024-02-26T15:39:56;94780.81;;;12.43;55.43
50384;BME280;36301;48.310;12.786;2024-02-26T15:42:23;94786.63;;;12.35;54.33
50384;BME280;36301;48.310;12.786;2024-02-26T15:44:49;94791.69;;;12.49;54.29
50384;BME280;36301;48.310;12.786;2024-02-26T15:47:16;94788.88;;;12.36;55.67
50384;BME280;36301;48.310;12.786;2024-02-26T15:49:44;94789.22;;;12.38;54.35
50384;BME280;36301;48.310;12.786;2024-02-26T15:52:12;94790.84;;;12.32;55.96
50384;BME280;36301;48.310;12.786;2024-02-26T15:54:41;94798.47;;;12.07;56.21
50384;BME280;36301;48.310;12.786;2024-02-26T15:57:08;94803.75;;;12.30;55.98
50384;BME280;36301;48.310;12.786;2024-02-26T15:59:37;94804.06;;;12.12;57.56
50384;BME280;36301;48.310;12.786;2024-02-26T16:02:04;94808.59;;;11.88;58.51
50384;BME280;36301;48.310;12.786;2024-02-26T16:04:31;94803.94;;;11.65;57.92
50384;BME280;36301;48.310;12.786;2024-02-26T16:07:03;94809.78;;;11.84;57.96
50384;BME280;36301;48.310;12.786;2024-02-26T16:09:35;94810.53;;;11.84;58.59
50384;BME280;36301;48.310;12.786;2024-02-26T16:12:17;94813.44;;;11.66;58.62
50384;BME280;36301;48.310;12.786;2024-02-26T16:14:52;94811.53;;;11.36;59.13
50384;BME280;36301;48.310;12.786;2024-02-26T16:17:24;94813.19;;;11.54;58.91
50384;BME280;36301;48.310;12.786;2024-02-26T16:19:54;94813.50;;;11.59;59.23
50384;BME280;36301;48.310;12.786;2024-02-26T16:22:21;94821.97;;;11.51;58.78
50384;BME280;36301;48.310;12.786;2024-02-26T16:24:48;94821.91;;;11.54;58.99
50384;BME280;36301;48.310;12.786;2024-02-26T16:27:15;94820.44;;;11.50;58.41
50384;BME280;36301;48.310;12.786;2024-02-26T16:30:03;94827.97;;;11.24;58.73
50384;BME280;36301;48.310;12.786;2024-02-26T16:32:34;94826.69;;;11.36;58.31
50384;BME280;36301;48.310;12.786;2024-02-26T16:35:01;94826.31;;;11.34;59.30
50384;BME280;36301;48.310;12.786;2024-02-26T16:37:29;94836.66;;;11.25;59.63
50384;BME280;36301;48.310;12.786;2024-02-26T16:40:01;94835.28;;;11.13;58.93
50384;BME280;36301;48.310;12.786;2024-02-26T16:42:31;94832.41;;;11.00;59.58
50384;BME280;36301;48.310;12.786;2024-02-26T16:44:58;94836.25;;;10.96;60.34
50384;BME280;36301;48.310;12.786;2024-02-26T16:47:26;94838.88;;;10.96;60.15
50384;BME280;36301;48.310;12.786;2024-02-26T16:49:53;94839.69;;;10.89;59.96
50384;BME280;36301;48.310;12.786;2024-02-26T16:52:24;94841.31;;;10.79;58.86
50384;BME280;36301;48.310;12.786;2024-02-26T16:54:55;94842.81;;;10.80;59.82
50384;BME280;36301;48.310;12.786;2024-02-26T16:57:23;94851.22;;;10.72;59.78
50384;BME280;36301;48.310;12.786;2024-02-26T16:59:51;94850.06;;;10.76;59.62
50384;BME280;36301;48.310;12.786;2024-02-26T17:02:19;94856.88;;;10.74;58.84
50384;BME280;36301;48.310;12.786;2024-02-26T17:04:48;94856.13;;;10.73;58.81
50384;BME280;36301;48.310;12.786;2024-02-26T17:07:16;94855.81;;;10.64;58.68
50384;BME280;36301;48.310;12.786;2024-02-26T17:09:47;94861.94;;;10.57;60.28
50384;BME280;36301;48.310;12.786;2024-02-26T17:12:16;94857.06;;;10.52;58.39
50384;BME280;36301;48.310;12.786;2024-02-26T17:14:44;94857.47;;;10.51;58.13
50384;BME280;36301;48.310;12.786;2024-02-26T17:17:16;94861.94;;;10.57;58.58
50384;BME280;36301;48.310;12.786;2024-02-26T17:19:45;94857.88;;;10.46;58.22
50384;BME280;36301;48.310;12.786;2024-02-26T17:22:12;94854.50;;;10.45;58.69
50384;BME280;36301;48.310;12.786;2024-02-26T17:24:38;94852.94;;;10.48;58.38
50384;BME280;36301;48.310;12.786;2024-02-26T17:27:05;94860.56;;;10.38;57.35
50384;BME280;36301;48.310;12.786;2024-02-26T17:29:32;94857.66;;;10.22;57.33
50384;BME280;36301;48.310;12.786;2024-02-26T17:32:00;94863.94;;;10.46;57.12
50384;BME280;36301;48.310;12.786;2024-02-26T17:34:33;94868.06;;;10.47;57.01
50384;BME280;36301;48.310;12.786;2024-02-26T17:37:00;94859.16;;;10.30;57.05
50384;BME280;36301;48.310;12.786;2024-02-26T17:39:27;94865.09;;;10.42;56.10
50384;BME280;36301;48.310;12.786;2024-02-26T17:41:54;94873.34;;;10.51;55.65
50384;BME280;36301;48.310;12.786;2024-02-26T17:44:35;94864.75;;;10.39;56.15
50384;BME280;36301;48.310;12.786;2024-02-26T17:47:04;94873.53;;;10.26;55.93
50384;BME280;36301;48.310;12.786;2024-02-26T17:53:38;94868.56;;;10.35;55.92
50384;BME280;36301;48.310;12.786;2024-02-26T17:56:20;94872.72;;;10.32;56.64
50384;BME280;36301;48.310;12.786;2024-02-26T17:58:49;94873.94;;;10.24;56.26
50384;BME280;36301;48.310;12.786;2024-02-26T18:01:17;94874.63;;;10.28;57.25
50384;BME280;36301;48.310;12.786;2024-02-26T18:03:47;94879.97;;;10.18;56.87
50384;BME280;36301;48.310;12.786;2024-02-26T18:06:17;94872.13;;;10.03;56.16
50384;BME280;36301;48.310;12.786;2024-02-26T18:08:44;94873.59;;;10.15;56.25
50384;BME280;36301;48.310;12.786;2024-02-26T18:11:12;94875.44;;;10.18;57.22
50384;BME280;36301;48.310;12.786;2024-02-26T18:13:40;94876.56;;;10.21;56.70
50384;BME280;36301;48.310;12.786;2024-02-26T18:16:11;94868.31;;;10.11;56.84
50384;BME280;36301;48.310;12.786;2024-02-26T18:18:39;94869.47;;;10.10;58.44
50384;BME280;36301;48.310;12.786;2024-02-26T18:21:06;94872.94;;;9.97;57.18
50384;BME280;36301;48.310;12.786;2024-02-26T18:23:34;94876.19;;;10.26;56.96
50384;BME280;36301;48.310;12.786;2024-02-26T18:26:01;94882.94;;;10.30;56.78
50384;BME280;36301;48.310;12.786;2024-02-26T18:28:29;94890.16;;;10.26;58.22
50384;BME280;36301;48.310;12.786;2024-02-26T18:30:59;94892.84;;;10.16;57.43
50384;BME280;36301;48.310;12.786;2024-02-26T18:33:30;94890.91;;;10.27;57.87
50384;BME280;36301;48.310;12.786;2024-02-26T18:35:58;94884.88;;;10.26;57.68
50384;BME280;36301;48.310;12.786;2024-02-26T18:38:26;94898.44;;;10.32;57.19
50384;BME280;36301;48.310;12.786;2024-02-26T18:40:53;94902.19;;;10.34;57.57
50384;BME280;36301;48.310;12.786;2024-02-26T18:43:20;94906.69;;;10.37;57.82